Wano, North Dakota
Current Conditions -  °F | °C
As of 7:56 PM on Friday 31 Oct 2014 (Local Time) from KJMS Reporting Station
Clear Clear  
Wind Chill: 20°   Ceiling: Unl
Heat Index: 31°   Visibility: 10mi
Dew Point: 19°   Wind: 15mph
Humidity: 61%   Direction: 150°SSE
Pressure: 30.29"   Gusts: NA
Location:  46.2592°N, 98.7407°W
Report Text: KJMS 010056Z AUTO 15013KT 10SM CLR M01/M07 A3029 RMK AO2 SLP282 T10061072
Loading
Personal Weather Stations






























Interactive Weather Map
Tropical Storm Tracking
New forecast layout! Learn more

10-Day Weather Forecast

Advertisements
Track Severe Weather on mobile